sensor_id;sensor_type;location;lat;lon;timestamp;temperature;humidity
20750;DHT22;10535;50.664;4.564;2023-04-08T00:01:01;9.10;99.90
20750;DHT22;10535;50.664;4.564;2023-04-08T00:03:27;8.80;99.90
20750;DHT22;10535;50.664;4.564;2023-04-08T00:05:54;9.00;99.90
20750;DHT22;10535;50.664;4.564;2023-04-08T00:08:20;9.10;99.90
20750;DHT22;10535;50.664;4.564;2023-04-08T00:10:45;9.00;99.90
20750;DHT22;10535;50.664;4.564;2023-04-08T00:13:11;9.10;99.90
20750;DHT22;10535;50.664;4.564;2023-04-08T00:15:37;9.00;99.90
20750;DHT22;10535;50.664;4.564;2023-04-08T00:18:03;9.10;99.90
20750;DHT22;10535;50.664;4.564;2023-04-08T00:20:28;9.20;99.90
20750;DHT22;10535;50.664;4.564;2023-04-08T00:22:54;9.20;99.90
20750;DHT22;10535;50.664;4.564;2023-04-08T00:25:20;9.20;99.90
20750;DHT22;10535;50.664;4.564;2023-04-08T00:27:45;9.10;99.90
20750;DHT22;10535;50.664;4.564;2023-04-08T00:30:11;9.00;99.90
20750;DHT22;10535;50.664;4.564;2023-04-08T00:32:36;9.10;99.90
20750;DHT22;10535;50.664;4.564;2023-04-08T00:35:04;9.10;99.90
20750;DHT22;10535;50.664;4.564;2023-04-08T00:37:29;9.10;99.90
20750;DHT22;10535;50.664;4.564;2023-04-08T00:39:56;9.10;99.90
20750;DHT22;10535;50.664;4.564;2023-04-08T00:42:21;9.20;99.90
20750;DHT22;10535;50.664;4.564;2023-04-08T00:44:47;9.10;99.90
20750;DHT22;10535;50.664;4.564;2023-04-08T00:47:13;9.20;99.90
20750;DHT22;10535;50.664;4.564;2023-04-08T00:49:40;9.10;99.90
20750;DHT22;10535;50.664;4.564;2023-04-08T00:52:06;9.00;99.90
20750;DHT22;10535;50.664;4.564;2023-04-08T00:54:32;9.30;99.90
20750;DHT22;10535;50.664;4.564;2023-04-08T00:56:59;9.10;99.90
20750;DHT22;10535;50.664;4.564;2023-04-08T00:59:25;9.10;99.90
20750;DHT22;10535;50.664;4.564;2023-04-08T01:05:04;9.10;99.90
20750;DHT22;10535;50.664;4.564;2023-04-08T01:07:33;9.20;99.90
20750;DHT22;10535;50.664;4.564;2023-04-08T01:10:39;9.20;99.90
20750;DHT22;10535;50.664;4.564;2023-04-08T01:13:03;9.20;99.90
20750;DHT22;10535;50.664;4.564;2023-04-08T01:15:32;8.90;99.90
20750;DHT22;10535;50.664;4.564;2023-04-08T01:18:00;8.90;99.90
20750;DHT22;10535;50.664;4.564;2023-04-08T01:20:30;9.00;99.90
20750;DHT22;10535;50.664;4.564;2023-04-08T01:25:33;9.10;99.90
20750;DHT22;10535;50.664;4.564;2023-04-08T01:28:00;9.20;99.90
20750;DHT22;10535;50.664;4.564;2023-04-08T01:30:28;9.20;99.90
20750;DHT22;10535;50.664;4.564;2023-04-08T01:32:55;9.20;99.90
20750;DHT22;10535;50.664;4.564;2023-04-08T01:35:22;9.30;99.90
20750;DHT22;10535;50.664;4.564;2023-04-08T01:37:49;9.20;99.90
20750;DHT22;10535;50.664;4.564;2023-04-08T01:40:17;9.20;99.90
20750;DHT22;10535;50.664;4.564;2023-04-08T01:42:44;8.90;99.90
20750;DHT22;10535;50.664;4.564;2023-04-08T01:45:12;8.80;99.90
20750;DHT22;10535;50.664;4.564;2023-04-08T01:47:39;8.90;99.90
20750;DHT22;10535;50.664;4.564;2023-04-08T01:50:06;9.00;99.90
20750;DHT22;10535;50.664;4.564;2023-04-08T01:52:34;9.00;99.90
20750;DHT22;10535;50.664;4.564;2023-04-08T01:55:00;8.90;99.90
20750;DHT22;10535;50.664;4.564;2023-04-08T01:57:27;9.10;99.90
20750;DHT22;10535;50.664;4.564;2023-04-08T01:59:59;9.10;99.90
20750;DHT22;10535;50.664;4.564;2023-04-08T02:02:26;9.30;99.90
20750;DHT22;10535;50.664;4.564;2023-04-08T02:04:53;9.20;99.90
20750;DHT22;10535;50.664;4.564;2023-04-08T02:07:19;9.30;99.90
20750;DHT22;10535;50.664;4.564;2023-04-08T02:09:45;9.20;99.90
20750;DHT22;10535;50.664;4.564;2023-04-08T02:12:11;9.30;99.90
20750;DHT22;10535;50.664;4.564;2023-04-08T02:14:36;9.20;99.90
20750;DHT22;10535;50.664;4.564;2023-04-08T02:17:10;9.30;99.90
20750;DHT22;10535;50.664;4.564;2023-04-08T02:22:18;9.30;99.90
20750;DHT22;10535;50.664;4.564;2023-04-08T02:24:48;9.20;99.90
20750;DHT22;10535;50.664;4.564;2023-04-08T02:27:16;9.20;99.90
20750;DHT22;10535;50.664;4.564;2023-04-08T02:29:43;9.20;99.90
20750;DHT22;10535;50.664;4.564;2023-04-08T02:32:10;9.20;99.90
20750;DHT22;10535;50.664;4.564;2023-04-08T02:34:39;9.20;99.90
20750;DHT22;10535;50.664;4.564;2023-04-08T02:37:07;9.20;99.90
20750;DHT22;10535;50.664;4.564;2023-04-08T02:39:33;9.20;99.90
20750;DHT22;10535;50.664;4.564;2023-04-08T02:41:59;9.20;99.90
20750;DHT22;10535;50.664;4.564;2023-04-08T02:44:25;9.00;99.90
20750;DHT22;10535;50.664;4.564;2023-04-08T02:46:51;8.90;99.90
20750;DHT22;10535;50.664;4.564;2023-04-08T02:49:16;9.00;99.90
20750;DHT22;10535;50.664;4.564;2023-04-08T02:51:42;9.10;99.90
20750;DHT22;10535;50.664;4.564;2023-04-08T02:54:07;9.00;99.90
20750;DHT22;10535;50.664;4.564;2023-04-08T02:56:33;9.00;99.90
20750;DHT22;10535;50.664;4.564;2023-04-08T02:58:58;9.10;99.90
20750;DHT22;10535;50.664;4.564;2023-04-08T03:01:24;9.10;99.90
20750;DHT22;10535;50.664;4.564;2023-04-08T03:03:50;9.10;99.90
20750;DHT22;10535;50.664;4.564;2023-04-08T03:06:15;8.70;99.90
20750;DHT22;10535;50.664;4.564;2023-04-08T03:08:41;8.70;99.90
20750;DHT22;10535;50.664;4.564;2023-04-08T03:11:07;8.80;99.90
20750;DHT22;10535;50.664;4.564;2023-04-08T03:13:33;8.90;99.90
20750;DHT22;10535;50.664;4.564;2023-04-08T03:15:59;8.90;99.90
20750;DHT22;10535;50.664;4.564;2023-04-08T03:18:25;9.00;99.90
20750;DHT22;10535;50.664;4.564;2023-04-08T03:20:51;8.90;99.90
20750;DHT22;10535;50.664;4.564;2023-04-08T03:23:16;8.90;99.90
20750;DHT22;10535;50.664;4.564;2023-04-08T03:25:42;9.00;99.90
20750;DHT22;10535;50.664;4.564;2023-04-08T03:28:07;9.00;99.90
20750;DHT22;10535;50.664;4.564;2023-04-08T03:30:33;9.10;99.90
20750;DHT22;10535;50.664;4.564;2023-04-08T03:32:59;9.10;99.90
20750;DHT22;10535;50.664;4.564;2023-04-08T03:35:24;9.20;99.90
20750;DHT22;10535;50.664;4.564;2023-04-08T03:37:50;9.30;99.90
20750;DHT22;10535;50.664;4.564;2023-04-08T03:40:16;9.10;99.90
20750;DHT22;10535;50.664;4.564;2023-04-08T03:42:41;9.00;99.90
20750;DHT22;10535;50.664;4.564;2023-04-08T03:45:07;9.10;99.90
20750;DHT22;10535;50.664;4.564;2023-04-08T03:47:33;9.00;99.90
20750;DHT22;10535;50.664;4.564;2023-04-08T03:49:59;8.80;99.90
20750;DHT22;10535;50.664;4.564;2023-04-08T03:52:25;9.10;99.90
20750;DHT22;10535;50.664;4.564;2023-04-08T03:54:50;9.20;99.90
20750;DHT22;10535;50.664;4.564;2023-04-08T03:57:16;9.30;99.90
20750;DHT22;10535;50.664;4.564;2023-04-08T03:59:41;9.30;99.90
20750;DHT22;10535;50.664;4.564;2023-04-08T04:02:07;9.10;99.90
20750;DHT22;10535;50.664;4.564;2023-04-08T04:04:33;9.10;99.90
20750;DHT22;10535;50.664;4.564;2023-04-08T04:07:00;9.00;99.90
20750;DHT22;10535;50.664;4.564;2023-04-08T04:09:25;9.00;99.90
20750;DHT22;10535;50.664;4.564;2023-04-08T04:11:51;9.00;99.90
20750;DHT22;10535;50.664;4.564;2023-04-08T04:14:17;8.90;99.90
20750;DHT22;10535;50.664;4.564;2023-04-08T04:16:42;8.90;99.90
20750;DHT22;10535;50.664;4.564;2023-04-08T04:19:08;9.00;99.90
20750;DHT22;10535;50.664;4.564;2023-04-08T04:21:33;9.20;99.90
20750;DHT22;10535;50.664;4.564;2023-04-08T04:23:59;9.30;99.90
20750;DHT22;10535;50.664;4.564;2023-04-08T04:26:24;9.20;99.90
20750;DHT22;10535;50.664;4.564;2023-04-08T04:28:50;9.10;99.90
20750;DHT22;10535;50.664;4.564;2023-04-08T04:31:20;9.10;99.90
20750;DHT22;10535;50.664;4.564;2023-04-08T04:33:46;9.00;99.90
20750;DHT22;10535;50.664;4.564;2023-04-08T04:36:13;9.00;99.90
20750;DHT22;10535;50.664;4.564;2023-04-08T04:38:38;9.00;99.90
20750;DHT22;10535;50.664;4.564;2023-04-08T04:41:04;9.00;99.90
20750;DHT22;10535;50.664;4.564;2023-04-08T04:43:30;9.00;99.90
20750;DHT22;10535;50.664;4.564;2023-04-08T04:45:55;9.00;99.90
20750;DHT22;10535;50.664;4.564;2023-04-08T04:48:22;8.80;99.90
20750;DHT22;10535;50.664;4.564;2023-04-08T04:50:58;8.60;99.90
20750;DHT22;10535;50.664;4.564;2023-04-08T04:53:24;8.60;99.90
20750;DHT22;10535;50.664;4.564;2023-04-08T04:55:50;8.50;99.90
20750;DHT22;10535;50.664;4.564;2023-04-08T04:58:16;8.70;99.90
20750;DHT22;10535;50.664;4.564;2023-04-08T05:00:42;8.70;99.90
20750;DHT22;10535;50.664;4.564;2023-04-08T05:03:08;8.80;99.90
20750;DHT22;10535;50.664;4.564;2023-04-08T05:05:33;8.60;99.90
20750;DHT22;10535;50.664;4.564;2023-04-08T05:07:59;8.70;99.90
20750;DHT22;10535;50.664;4.564;2023-04-08T05:10:25;8.80;99.90
20750;DHT22;10535;50.664;4.564;2023-04-08T05:12:50;9.00;99.90
20750;DHT22;10535;50.664;4.564;2023-04-08T05:15:16;9.00;99.90
20750;DHT22;10535;50.664;4.564;2023-04-08T05:17:42;8.90;99.90
20750;DHT22;10535;50.664;4.564;2023-04-08T05:20:07;9.10;99.90
20750;DHT22;10535;50.664;4.564;2023-04-08T05:22:33;9.00;99.90
20750;DHT22;10535;50.664;4.564;2023-04-08T05:24:59;9.00;99.90
20750;DHT22;10535;50.664;4.564;2023-04-08T05:27:24;8.80;99.90
20750;DHT22;10535;50.664;4.564;2023-04-08T05:29:50;8.90;99.90
20750;DHT22;10535;50.664;4.564;2023-04-08T05:32:17;9.00;99.90
20750;DHT22;10535;50.664;4.564;2023-04-08T05:34:43;9.10;99.90
20750;DHT22;10535;50.664;4.564;2023-04-08T05:37:09;9.10;99.90
20750;DHT22;10535;50.664;4.564;2023-04-08T05:39:34;9.10;99.90
20750;DHT22;10535;50.664;4.564;2023-04-08T05:42:01;9.10;99.90
20750;DHT22;10535;50.664;4.564;2023-04-08T05:44:26;9.10;99.90
20750;DHT22;10535;50.664;4.564;2023-04-08T05:46:52;8.90;99.90
20750;DHT22;10535;50.664;4.564;2023-04-08T05:49:18;8.90;99.90
20750;DHT22;10535;50.664;4.564;2023-04-08T05:51:43;9.20;99.90
20750;DHT22;10535;50.664;4.564;2023-04-08T05:54:09;9.30;99.90
20750;DHT22;10535;50.664;4.564;2023-04-08T05:56:35;9.30;99.90
20750;DHT22;10535;50.664;4.564;2023-04-08T05:59:10;9.30;99.90
20750;DHT22;10535;50.664;4.564;2023-04-08T06:01:38;9.30;99.90
20750;DHT22;10535;50.664;4.564;2023-04-08T06:04:13;9.30;99.90
20750;DHT22;10535;50.664;4.564;2023-04-08T06:07:39;9.30;99.90
20750;DHT22;10535;50.664;4.564;2023-04-08T06:10:12;9.30;99.90
20750;DHT22;10535;50.664;4.564;2023-04-08T06:12:57;9.30;99.90
20750;DHT22;10535;50.664;4.564;2023-04-08T06:15:55;9.40;99.90
20750;DHT22;10535;50.664;4.564;2023-04-08T06:18:27;9.40;99.90
20750;DHT22;10535;50.664;4.564;2023-04-08T06:21:00;9.40;99.90
20750;DHT22;10535;50.664;4.564;2023-04-08T06:23:28;9.50;99.90
20750;DHT22;10535;50.664;4.564;2023-04-08T06:26:35;9.40;99.90
20750;DHT22;10535;50.664;4.564;2023-04-08T06:29:28;9.40;99.90
20750;DHT22;10535;50.664;4.564;2023-04-08T06:32:03;9.40;99.90
20750;DHT22;10535;50.664;4.564;2023-04-08T06:34:54;9.60;99.90
20750;DHT22;10535;50.664;4.564;2023-04-08T06:37:56;9.60;99.90
20750;DHT22;10535;50.664;4.564;2023-04-08T06:40:33;9.70;99.90
20750;DHT22;10535;50.664;4.564;2023-04-08T06:42:58;9.50;99.90
20750;DHT22;10535;50.664;4.564;2023-04-08T06:45:28;9.40;99.90
20750;DHT22;10535;50.664;4.564;2023-04-08T06:47:56;9.30;99.90
20750;DHT22;10535;50.664;4.564;2023-04-08T06:50:41;9.60;99.90
20750;DHT22;10535;50.664;4.564;2023-04-08T06:53:13;9.70;99.90
20750;DHT22;10535;50.664;4.564;2023-04-08T06:55:59;9.70;99.90
20750;DHT22;10535;50.664;4.564;2023-04-08T06:59:07;9.70;99.90
20750;DHT22;10535;50.664;4.564;2023-04-08T07:01:34;9.70;99.90
20750;DHT22;10535;50.664;4.564;2023-04-08T07:04:20;9.60;99.90
20750;DHT22;10535;50.664;4.564;2023-04-08T07:06:58;9.60;99.90
20750;DHT22;10535;50.664;4.564;2023-04-08T07:09:43;9.70;99.90
20750;DHT22;10535;50.664;4.564;2023-04-08T07:12:36;9.70;99.90
20750;DHT22;10535;50.664;4.564;2023-04-08T07:15:11;10.00;99.90
20750;DHT22;10535;50.664;4.564;2023-04-08T07:17:43;10.10;99.90
20750;DHT22;10535;50.664;4.564;2023-04-08T07:20:22;10.30;99.90
20750;DHT22;10535;50.664;4.564;2023-04-08T07:23:22;10.60;99.90
20750;DHT22;10535;50.664;4.564;2023-04-08T07:26:09;10.50;99.90
20750;DHT22;10535;50.664;4.564;2023-04-08T07:28:58;10.30;99.90
20750;DHT22;10535;50.664;4.564;2023-04-08T07:31:24;10.40;99.90
20750;DHT22;10535;50.664;4.564;2023-04-08T07:34:02;10.30;99.90
20750;DHT22;10535;50.664;4.564;2023-04-08T07:37:03;10.20;99.90
20750;DHT22;10535;50.664;4.564;2023-04-08T07:39:52;10.50;99.90
20750;DHT22;10535;50.664;4.564;2023-04-08T07:43:12;10.80;99.90
20750;DHT22;10535;50.664;4.564;2023-04-08T07:46:02;10.80;99.90
20750;DHT22;10535;50.664;4.564;2023-04-08T07:49:04;10.80;99.90
20750;DHT22;10535;50.664;4.564;2023-04-08T07:51:41;10.60;99.90
20750;DHT22;10535;50.664;4.564;2023-04-08T07:54:06;10.50;99.90
20750;DHT22;10535;50.664;4.564;2023-04-08T07:56:51;10.50;99.90
20750;DHT22;10535;50.664;4.564;2023-04-08T08:03:33;11.00;99.90
20750;DHT22;10535;50.664;4.564;2023-04-08T08:06:22;11.10;99.90
20750;DHT22;10535;50.664;4.564;2023-04-08T08:09:07;11.20;99.90
20750;DHT22;10535;50.664;4.564;2023-04-08T08:11:36;11.00;99.90
20750;DHT22;10535;50.664;4.564;2023-04-08T08:14:04;10.90;99.90
20750;DHT22;10535;50.664;4.564;2023-04-08T08:17:13;11.30;99.90
20750;DHT22;10535;50.664;4.564;2023-04-08T08:20:22;11.00;99.90
20750;DHT22;10535;50.664;4.564;2023-04-08T08:25:58;11.20;99.90
20750;DHT22;10535;50.664;4.564;2023-04-08T08:28:41;11.30;99.90
20750;DHT22;10535;50.664;4.564;2023-04-08T08:31:21;11.30;99.90
20750;DHT22;10535;50.664;4.564;2023-04-08T08:33:47;11.30;99.90
20750;DHT22;10535;50.664;4.564;2023-04-08T08:36:42;11.50;99.90
20750;DHT22;10535;50.664;4.564;2023-04-08T08:39:11;11.50;99.90
20750;DHT22;10535;50.664;4.564;2023-04-08T08:41:42;11.80;99.90
20750;DHT22;10535;50.664;4.564;2023-04-08T08:44:33;12.00;99.90
20750;DHT22;10535;50.664;4.564;2023-04-08T08:47:21;12.00;99.90
20750;DHT22;10535;50.664;4.564;2023-04-08T08:50:41;12.20;99.90
20750;DHT22;10535;50.664;4.564;2023-04-08T08:54:04;12.30;99.90
20750;DHT22;10535;50.664;4.564;2023-04-08T08:56:41;12.40;99.90
20750;DHT22;10535;50.664;4.564;2023-04-08T08:59:48;12.30;99.90
20750;DHT22;10535;50.664;4.564;2023-04-08T09:02:53;11.80;99.90
20750;DHT22;10535;50.664;4.564;2023-04-08T09:06:26;11.70;99.90
20750;DHT22;10535;50.664;4.564;2023-04-08T09:09:16;11.60;99.90
20750;DHT22;10535;50.664;4.564;2023-04-08T09:12:07;11.40;99.90
20750;DHT22;10535;50.664;4.564;2023-04-08T09:15:13;11.70;99.90
20750;DHT22;10535;50.664;4.564;2023-04-08T09:18:02;11.90;99.90
20750;DHT22;10535;50.664;4.564;2023-04-08T09:21:34;12.20;99.90
20750;DHT22;10535;50.664;4.564;2023-04-08T09:24:37;12.10;99.90
20750;DHT22;10535;50.664;4.564;2023-04-08T09:27:06;11.70;99.90
20750;DHT22;10535;50.664;4.564;2023-04-08T09:29:52;11.40;99.90
20750;DHT22;10535;50.664;4.564;2023-04-08T09:32:49;11.50;99.90
20750;DHT22;10535;50.664;4.564;2023-04-08T09:35:23;11.70;99.90
20750;DHT22;10535;50.664;4.564;2023-04-08T09:38:05;12.00;99.90
20750;DHT22;10535;50.664;4.564;2023-04-08T09:40:54;11.70;99.90
20750;DHT22;10535;50.664;4.564;2023-04-08T09:43:30;11.90;99.90
20750;DHT22;10535;50.664;4.564;2023-04-08T09:50:35;11.60;99.90
20750;DHT22;10535;50.664;4.564;2023-04-08T09:53:55;11.90;99.90
20750;DHT22;10535;50.664;4.564;2023-04-08T09:57:04;12.30;99.90
20750;DHT22;10535;50.664;4.564;2023-04-08T10:00:18;11.80;99.90
20750;DHT22;10535;50.664;4.564;2023-04-08T10:03:36;12.10;99.90
20750;DHT22;10535;50.664;4.564;2023-04-08T10:07:03;12.70;99.90
20750;DHT22;10535;50.664;4.564;2023-04-08T10:10:37;12.90;99.90
20750;DHT22;10535;50.664;4.564;2023-04-08T10:14:11;13.10;99.90
20750;DHT22;10535;50.664;4.564;2023-04-08T10:17:25;13.20;99.90
20750;DHT22;10535;50.664;4.564;2023-04-08T10:26:40;13.40;99.90
20750;DHT22;10535;50.664;4.564;2023-04-08T10:30:50;13.80;99.90
20750;DHT22;10535;50.664;4.564;2023-04-08T10:33:37;13.90;99.90
20750;DHT22;10535;50.664;4.564;2023-04-08T10:36:25;14.10;99.90
20750;DHT22;10535;50.664;4.564;2023-04-08T10:38:55;13.40;99.90
20750;DHT22;10535;50.664;4.564;2023-04-08T10:41:28;13.70;99.90
20750;DHT22;10535;50.664;4.564;2023-04-08T10:44:58;13.60;99.90
20750;DHT22;10535;50.664;4.564;2023-04-08T10:47:50;13.70;99.90
20750;DHT22;10535;50.664;4.564;2023-04-08T10:50:36;13.30;99.90
20750;DHT22;10535;50.664;4.564;2023-04-08T10:55:47;12.90;99.90
20750;DHT22;10535;50.664;4.564;2023-04-08T10:59:28;12.90;99.90
20750;DHT22;10535;50.664;4.564;2023-04-08T11:02:19;13.70;99.90
20750;DHT22;10535;50.664;4.564;2023-04-08T11:05:13;14.40;99.90
20750;DHT22;10535;50.664;4.564;2023-04-08T11:08:01;14.50;99.90
20750;DHT22;10535;50.664;4.564;2023-04-08T11:11:02;15.00;99.90
20750;DHT22;10535;50.664;4.564;2023-04-08T11:13:44;15.40;99.90
20750;DHT22;10535;50.664;4.564;2023-04-08T11:16:42;15.40;99.90
20750;DHT22;10535;50.664;4.564;2023-04-08T11:19:11;15.50;99.90
20750;DHT22;10535;50.664;4.564;2023-04-08T11:22:19;15.50;99.90
20750;DHT22;10535;50.664;4.564;2023-04-08T11:25:11;15.20;99.90
20750;DHT22;10535;50.664;4.564;2023-04-08T11:27:42;14.80;99.90
20750;DHT22;10535;50.664;4.564;2023-04-08T11:30:14;14.70;99.90
20750;DHT22;10535;50.664;4.564;2023-04-08T11:32:44;14.90;99.90
20750;DHT22;10535;50.664;4.564;2023-04-08T11:35:34;15.20;99.90
20750;DHT22;10535;50.664;4.564;2023-04-08T11:38:59;15.20;99.90
20750;DHT22;10535;50.664;4.564;2023-04-08T11:44:58;15.50;99.90
20750;DHT22;10535;50.664;4.564;2023-04-08T11:47:50;15.30;99.90
20750;DHT22;10535;50.664;4.564;2023-04-08T11:53:56;15.00;99.90
20750;DHT22;10535;50.664;4.564;2023-04-08T11:56:45;14.00;99.90
20750;DHT22;10535;50.664;4.564;2023-04-08T11:59:13;13.70;99.90
20750;DHT22;10535;50.664;4.564;2023-04-08T12:01:39;13.40;99.90
20750;DHT22;10535;50.664;4.564;2023-04-08T12:04:04;13.20;99.90
20750;DHT22;10535;50.664;4.564;2023-04-08T12:06:31;13.40;99.90
20750;DHT22;10535;50.664;4.564;2023-04-08T12:08:57;13.20;99.90
20750;DHT22;10535;50.664;4.564;2023-04-08T12:11:23;13.00;99.90
20750;DHT22;10535;50.664;4.564;2023-04-08T12:13:48;13.30;99.90
20750;DHT22;10535;50.664;4.564;2023-04-08T12:16:15;13.90;99.90
20750;DHT22;10535;50.664;4.564;2023-04-08T12:18:41;13.80;99.90
20750;DHT22;10535;50.664;4.564;2023-04-08T12:21:07;14.30;99.90
20750;DHT22;10535;50.664;4.564;2023-04-08T12:23:32;14.60;99.90
20750;DHT22;10535;50.664;4.564;2023-04-08T12:25:58;15.00;99.90
20750;DHT22;10535;50.664;4.564;2023-04-08T12:28:23;15.30;99.90
20750;DHT22;10535;50.664;4.564;2023-04-08T12:30:49;15.40;99.90
20750;DHT22;10535;50.664;4.564;2023-04-08T12:33:15;15.20;99.90
20750;DHT22;10535;50.664;4.564;2023-04-08T12:35:40;15.20;99.90
20750;DHT22;10535;50.664;4.564;2023-04-08T12:38:06;14.80;99.90
20750;DHT22;10535;50.664;4.564;2023-04-08T12:40:32;14.60;99.90
20750;DHT22;10535;50.664;4.564;2023-04-08T12:42:57;14.40;99.90
20750;DHT22;10535;50.664;4.564;2023-04-08T12:45:23;14.30;99.90
20750;DHT22;10535;50.664;4.564;2023-04-08T12:47:48;14.30;99.90
20750;DHT22;10535;50.664;4.564;2023-04-08T12:50:14;14.00;99.90
20750;DHT22;10535;50.664;4.564;2023-04-08T12:52:40;13.80;99.90
20750;DHT22;10535;50.664;4.564;2023-04-08T12:55:06;13.90;99.90
20750;DHT22;10535;50.664;4.564;2023-04-08T12:57:32;14.10;99.90
20750;DHT22;10535;50.664;4.564;2023-04-08T12:59:58;13.80;99.90
20750;DHT22;10535;50.664;4.564;2023-04-08T13:02:23;14.00;99.90
20750;DHT22;10535;50.664;4.564;2023-04-08T13:04:51;13.80;99.90
20750;DHT22;10535;50.664;4.564;2023-04-08T13:07:18;13.40;99.90
20750;DHT22;10535;50.664;4.564;2023-04-08T13:09:43;13.40;99.90
20750;DHT22;10535;50.664;4.564;2023-04-08T13:12:10;13.70;99.90
20750;DHT22;10535;50.664;4.564;2023-04-08T13:14:36;13.90;99.90
20750;DHT22;10535;50.664;4.564;2023-04-08T13:17:03;14.20;99.90
20750;DHT22;10535;50.664;4.564;2023-04-08T13:19:28;14.40;99.90
20750;DHT22;10535;50.664;4.564;2023-04-08T13:21:54;14.50;99.90
20750;DHT22;10535;50.664;4.564;2023-04-08T13:24:20;14.20;99.90
20750;DHT22;10535;50.664;4.564;2023-04-08T13:26:45;14.30;99.90
20750;DHT22;10535;50.664;4.564;2023-04-08T13:29:11;14.10;99.90
20750;DHT22;10535;50.664;4.564;2023-04-08T13:31:37;13.90;99.90
20750;DHT22;10535;50.664;4.564;2023-04-08T13:34:03;13.90;99.90
20750;DHT22;10535;50.664;4.564;2023-04-08T13:36:29;14.20;99.90
20750;DHT22;10535;50.664;4.564;2023-04-08T13:38:55;14.40;99.90
20750;DHT22;10535;50.664;4.564;2023-04-08T13:41:21;14.40;99.90
20750;DHT22;10535;50.664;4.564;2023-04-08T13:43:47;14.70;99.90
20750;DHT22;10535;50.664;4.564;2023-04-08T13:46:13;15.00;99.90
20750;DHT22;10535;50.664;4.564;2023-04-08T13:48:38;15.30;99.90
20750;DHT22;10535;50.664;4.564;2023-04-08T13:51:04;15.60;99.90
20750;DHT22;10535;50.664;4.564;2023-04-08T13:53:30;15.70;99.90
20750;DHT22;10535;50.664;4.564;2023-04-08T13:55:55;16.00;99.90
20750;DHT22;10535;50.664;4.564;2023-04-08T13:58:23;16.50;99.90
20750;DHT22;10535;50.664;4.564;2023-04-08T14:00:50;16.90;99.90
20750;DHT22;10535;50.664;4.564;2023-04-08T14:03:16;16.60;99.90
20750;DHT22;10535;50.664;4.564;2023-04-08T14:05:41;16.00;99.90
20750;DHT22;10535;50.664;4.564;2023-04-08T14:08:09;15.60;99.90
20750;DHT22;10535;50.664;4.564;2023-04-08T14:10:36;15.70;99.90
20750;DHT22;10535;50.664;4.564;2023-04-08T14:13:02;15.60;99.90
20750;DHT22;10535;50.664;4.564;2023-04-08T14:15:28;15.30;99.90
20750;DHT22;10535;50.664;4.564;2023-04-08T14:17:53;15.20;99.90
20750;DHT22;10535;50.664;4.564;2023-04-08T14:20:20;15.50;99.90
20750;DHT22;10535;50.664;4.564;2023-04-08T14:22:45;15.60;99.90
20750;DHT22;10535;50.664;4.564;2023-04-08T14:25:11;15.60;99.90
20750;DHT22;10535;50.664;4.564;2023-04-08T14:27:36;15.60;99.90
20750;DHT22;10535;50.664;4.564;2023-04-08T14:30:02;15.80;99.90
20750;DHT22;10535;50.664;4.564;2023-04-08T14:32:28;15.60;99.90
20750;DHT22;10535;50.664;4.564;2023-04-08T14:34:53;15.20;99.90
20750;DHT22;10535;50.664;4.564;2023-04-08T14:37:19;15.20;99.90
20750;DHT22;10535;50.664;4.564;2023-04-08T14:39:45;15.60;99.90
20750;DHT22;10535;50.664;4.564;2023-04-08T14:42:10;15.70;99.90
20750;DHT22;10535;50.664;4.564;2023-04-08T14:44:43;15.60;99.90
20750;DHT22;10535;50.664;4.564;2023-04-08T14:47:52;14.80;99.90
20750;DHT22;10535;50.664;4.564;2023-04-08T14:50:39;14.90;99.90
20750;DHT22;10535;50.664;4.564;2023-04-08T14:53:09;15.10;99.90
20750;DHT22;10535;50.664;4.564;2023-04-08T14:55:55;15.00;99.90
20750;DHT22;10535;50.664;4.564;2023-04-08T14:58:58;15.30;99.90
20750;DHT22;10535;50.664;4.564;2023-04-08T15:01:44;15.60;99.90
20750;DHT22;10535;50.664;4.564;2023-04-08T15:04:30;15.80;99.90
20750;DHT22;10535;50.664;4.564;2023-04-08T15:06:56;15.80;99.90
20750;DHT22;10535;50.664;4.564;2023-04-08T15:09:44;16.00;99.90
20750;DHT22;10535;50.664;4.564;2023-04-08T15:12:26;16.10;99.90
20750;DHT22;10535;50.664;4.564;2023-04-08T15:14:51;15.90;99.90
20750;DHT22;10535;50.664;4.564;2023-04-08T15:17:23;15.90;99.90
20750;DHT22;10535;50.664;4.564;2023-04-08T15:19:58;15.80;99.90
20750;DHT22;10535;50.664;4.564;2023-04-08T15:22:24;15.80;99.90
20750;DHT22;10535;50.664;4.564;2023-04-08T15:24:50;15.90;99.90
20750;DHT22;10535;50.664;4.564;2023-04-08T15:27:16;15.70;99.90
20750;DHT22;10535;50.664;4.564;2023-04-08T15:29:44;15.70;99.90
20750;DHT22;10535;50.664;4.564;2023-04-08T15:32:28;15.70;99.90
20750;DHT22;10535;50.664;4.564;2023-04-08T15:37:51;15.60;99.90
20750;DHT22;10535;50.664;4.564;2023-04-08T15:40:34;15.40;99.90
20750;DHT22;10535;50.664;4.564;2023-04-08T15:43:20;14.90;99.90
20750;DHT22;10535;50.664;4.564;2023-04-08T15:46:45;15.20;99.90
20750;DHT22;10535;50.664;4.564;2023-04-08T15:49:46;15.30;99.90
20750;DHT22;10535;50.664;4.564;2023-04-08T15:52:19;15.00;99.90
20750;DHT22;10535;50.664;4.564;2023-04-08T15:55:19;15.10;99.90
20750;DHT22;10535;50.664;4.564;2023-04-08T15:57:51;15.00;99.90
20750;DHT22;10535;50.664;4.564;2023-04-08T16:00:57;14.70;99.90
20750;DHT22;10535;50.664;4.564;2023-04-08T16:03:43;14.80;99.90
20750;DHT22;10535;50.664;4.564;2023-04-08T16:06:31;14.70;99.90
20750;DHT22;10535;50.664;4.564;2023-04-08T16:09:17;14.90;99.90
20750;DHT22;10535;50.664;4.564;2023-04-08T16:12:22;14.80;99.90
20750;DHT22;10535;50.664;4.564;2023-04-08T16:15:31;14.10;99.90
20750;DHT22;10535;50.664;4.564;2023-04-08T16:18:18;14.20;99.90
20750;DHT22;10535;50.664;4.564;2023-04-08T16:21:25;14.10;99.90
20750;DHT22;10535;50.664;4.564;2023-04-08T16:24:14;14.20;99.90
20750;DHT22;10535;50.664;4.564;2023-04-08T16:27:02;14.30;99.90
20750;DHT22;10535;50.664;4.564;2023-04-08T16:29:34;14.40;99.90
20750;DHT22;10535;50.664;4.564;2023-04-08T16:32:02;14.60;99.90
20750;DHT22;10535;50.664;4.564;2023-04-08T16:34:29;14.80;99.90
20750;DHT22;10535;50.664;4.564;2023-04-08T16:36:55;15.10;99.90
20750;DHT22;10535;50.664;4.564;2023-04-08T16:39:50;15.10;99.90
20750;DHT22;10535;50.664;4.564;2023-04-08T16:42:16;15.10;99.90
20750;DHT22;10535;50.664;4.564;2023-04-08T16:44:42;15.10;99.90
20750;DHT22;10535;50.664;4.564;2023-04-08T16:47:08;15.20;99.90
20750;DHT22;10535;50.664;4.564;2023-04-08T16:49:33;15.10;99.90
20750;DHT22;10535;50.664;4.564;2023-04-08T16:51:59;14.60;99.90
20750;DHT22;10535;50.664;4.564;2023-04-08T16:54:25;14.30;99.90
20750;DHT22;10535;50.664;4.564;2023-04-08T16:56:50;14.30;99.90
20750;DHT22;10535;50.664;4.564;2023-04-08T16:59:16;14.00;99.90
20750;DHT22;10535;50.664;4.564;2023-04-08T17:01:42;13.90;99.90
20750;DHT22;10535;50.664;4.564;2023-04-08T17:04:07;14.00;99.90
20750;DHT22;10535;50.664;4.564;2023-04-08T17:06:33;14.30;99.90
20750;DHT22;10535;50.664;4.564;2023-04-08T17:09:01;14.50;99.90